createdAt,value
2019-06-27T00:00:29.285Z,28.51
2019-06-27T00:05:33.513Z,28.52
2019-06-27T00:10:37.449Z,28.44
2019-06-27T00:15:41.401Z,28.41
2019-06-27T00:20:45.445Z,28.38
2019-06-27T00:25:49.547Z,28.45
2019-06-27T00:30:53.531Z,28.43
2019-06-27T00:35:57.524Z,28.43
2019-06-27T00:41:01.608Z,28.43
2019-06-27T00:46:05.795Z,28.41
2019-06-27T00:51:10.092Z,28.39
2019-06-27T00:56:14.044Z,28.42
2019-06-27T01:01:18.009Z,28.34
2019-06-27T01:06:22.030Z,28.28
2019-06-27T01:11:26.096Z,28.20
2019-06-27T01:16:30.060Z,28.28
2019-06-27T01:21:34.081Z,28.26
2019-06-27T01:26:38.100Z,28.26
2019-06-27T01:31:42.157Z,28.25
2019-06-27T01:36:46.132Z,28.21
2019-06-27T01:41:50.244Z,28.20
2019-06-27T01:46:54.184Z,28.20
2019-06-27T01:51:58.135Z,28.18
2019-06-27T01:57:02.209Z,28.14
2019-06-27T02:02:06.530Z,28.17
2019-06-27T02:07:10.633Z,28.13
2019-06-27T02:12:14.677Z,28.13
2019-06-27T02:17:18.685Z,28.12
2019-06-27T02:22:22.902Z,28.02
2019-06-27T02:27:26.845Z,28.09
2019-06-27T02:32:30.863Z,27.99
2019-06-27T02:37:34.806Z,28.05
2019-06-27T02:42:38.907Z,28.05
2019-06-27T02:47:42.854Z,28.04
2019-06-27T02:52:46.852Z,27.95
2019-06-27T02:57:51.653Z,28.01
2019-06-27T03:02:55.724Z,28.01
2019-06-27T03:07:59.679Z,28.01
2019-06-27T03:13:03.702Z,27.98
2019-06-27T03:18:07.741Z,27.96
2019-06-27T03:23:11.676Z,27.96
2019-06-27T03:28:15.683Z,27.97
2019-06-27T03:33:19.742Z,27.97
2019-06-27T03:38:23.828Z,27.88
2019-06-27T03:43:27.890Z,27.88
2019-06-27T03:48:31.830Z,27.88
2019-06-27T03:53:35.931Z,27.93
2019-06-27T03:58:40.070Z,27.90
2019-06-27T04:03:44.023Z,27.90
2019-06-27T04:08:47.964Z,27.88
2019-06-27T04:13:51.916Z,27.88
2019-06-27T04:18:55.859Z,27.87
2019-06-27T04:23:59.810Z,27.87
2019-06-27T04:29:03.816Z,27.87
2019-06-27T04:34:07.767Z,27.85
2019-06-27T04:39:11.736Z,27.85
2019-06-27T04:44:15.685Z,27.82
2019-06-27T04:49:19.635Z,27.81
2019-06-27T04:54:23.613Z,27.81
2019-06-27T04:59:27.627Z,27.80
2019-06-27T05:04:31.642Z,27.70
2019-06-27T05:09:35.592Z,27.79
2019-06-27T05:14:39.615Z,27.76
2019-06-27T05:19:43.575Z,27.68
2019-06-27T05:24:47.517Z,27.75
2019-06-27T05:30:05.000Z,27.75
2019-06-27T05:34:57.380Z,27.73
2019-06-27T05:40:01.343Z,27.73
2019-06-27T05:45:05.653Z,27.73
2019-06-27T05:50:10.477Z,27.72
2019-06-27T05:55:14.478Z,27.64
2019-06-27T06:00:28.140Z,27.71
2019-06-27T06:05:24.251Z,27.73
2019-06-27T06:10:28.183Z,27.73
2019-06-27T06:15:32.500Z,27.72
2019-06-27T06:20:36.437Z,27.71
2019-06-27T06:25:40.417Z,27.71
2019-06-27T06:30:45.338Z,27.69
2019-06-27T06:35:49.497Z,24.98
2019-06-27T06:40:53.515Z,24.06
2019-06-27T06:45:57.623Z,23.45
2019-06-27T06:51:01.554Z,23.45
2019-06-27T06:56:06.050Z,23.32
2019-06-27T07:01:10.050Z,23.31
2019-06-27T07:06:13.998Z,22.99
2019-06-27T07:11:17.944Z,23.22
2019-06-27T07:16:21.888Z,22.56
2019-06-27T07:21:25.834Z,22.53
2019-06-27T07:26:29.774Z,22.56
2019-06-27T07:31:33.717Z,22.96
2019-06-27T07:36:37.734Z,23.01
2019-06-27T07:41:41.696Z,23.06
2019-06-27T07:46:45.661Z,23.05
2019-06-27T07:51:49.690Z,22.75
2019-06-27T07:56:53.626Z,22.75
2019-06-27T08:01:57.584Z,23.00
2019-06-27T08:07:01.544Z,22.78
2019-06-27T08:12:05.633Z,22.78
2019-06-27T08:17:09.578Z,22.99
2019-06-27T08:22:13.531Z,23.20
2019-06-27T08:27:17.546Z,22.99
2019-06-27T08:32:21.851Z,22.99
2019-06-27T08:37:25.823Z,23.13
2019-06-27T08:42:29.754Z,23.13
2019-06-27T08:47:33.709Z,23.22
2019-06-27T08:52:37.724Z,23.07
2019-06-27T08:57:41.714Z,23.03
2019-06-27T09:02:45.698Z,22.99
2019-06-27T09:07:49.724Z,23.02
2019-06-27T09:12:53.676Z,23.10
2019-06-27T09:17:57.610Z,23.11
2019-06-27T09:23:01.551Z,23.44
2019-06-27T09:28:05.485Z,23.44
2019-06-27T09:33:09.449Z,23.61
2019-06-27T09:38:13.402Z,23.68
2019-06-27T09:43:17.396Z,23.80
2019-06-27T09:48:21.344Z,23.90
2019-06-27T09:53:25.306Z,23.86
2019-06-27T09:58:29.382Z,23.86
2019-06-27T10:03:34.063Z,24.05
2019-06-27T10:08:38.008Z,24.07
2019-06-27T10:13:41.934Z,24.06
2019-06-27T10:18:45.862Z,24.06
2019-06-27T10:23:49.878Z,24.26
2019-06-27T10:28:53.890Z,24.24
2019-06-27T10:33:57.906Z,24.38
2019-06-27T10:39:01.919Z,24.38
2019-06-27T10:44:05.961Z,24.63
2019-06-27T10:49:09.909Z,24.58
2019-06-27T10:54:13.922Z,24.58
2019-06-27T10:59:17.902Z,24.56
2019-06-27T11:04:22.009Z,24.85
2019-06-27T11:09:25.992Z,24.84
2019-06-27T11:14:30.080Z,24.88
2019-06-27T11:19:33.987Z,24.85
2019-06-27T11:24:37.980Z,24.85
2019-06-27T11:29:41.914Z,25.04
2019-06-27T11:34:45.864Z,25.10
2019-06-27T11:39:49.893Z,25.21
2019-06-27T11:44:53.925Z,25.23
2019-06-27T11:49:57.872Z,25.23
2019-06-27T11:55:01.887Z,25.30
2019-06-27T12:00:07.041Z,25.30
2019-06-27T12:05:11.228Z,25.32
2019-06-27T12:10:17.515Z,25.43
2019-06-27T12:15:21.517Z,25.46
2019-06-27T12:20:25.459Z,25.47
2019-06-27T12:25:29.435Z,25.47
2019-06-27T12:30:33.361Z,25.55
2019-06-27T12:35:37.368Z,25.55
2019-06-27T12:40:42.175Z,25.63
2019-06-27T12:45:46.142Z,25.63
2019-06-27T12:50:50.154Z,25.73
2019-06-27T12:55:54.637Z,25.65
2019-06-27T13:00:58.660Z,25.83
2019-06-27T13:06:02.697Z,25.83
2019-06-27T13:11:06.620Z,25.61
2019-06-27T13:16:10.678Z,25.62
2019-06-27T13:21:14.619Z,25.83
2019-06-27T13:26:18.607Z,25.94
2019-06-27T13:31:22.693Z,25.98
2019-06-27T13:36:26.650Z,26.03
2019-06-27T13:41:30.615Z,26.09
2019-06-27T13:46:34.557Z,26.09
2019-06-27T13:51:38.523Z,26.09
2019-06-27T13:56:42.473Z,26.09
2019-06-27T14:01:46.428Z,26.08
2019-06-27T14:06:50.371Z,26.08
2019-06-27T14:11:54.397Z,26.27
2019-06-27T14:16:58.332Z,26.33
2019-06-27T14:22:02.446Z,26.34
2019-06-27T14:27:06.406Z,26.36
2019-06-27T14:32:10.401Z,26.38
2019-06-27T14:37:14.375Z,26.41
2019-06-27T14:42:18.555Z,26.44
2019-06-27T14:47:22.532Z,26.50
2019-06-27T14:52:26.502Z,26.50
2019-06-27T14:57:30.469Z,26.51
2019-06-27T15:02:34.520Z,26.53
2019-06-27T15:07:38.557Z,26.53
2019-06-27T15:12:55.756Z,26.58
2019-06-27T15:17:48.195Z,26.62
2019-06-27T15:22:52.160Z,26.64
2019-06-27T15:27:56.214Z,26.67
2019-06-27T15:33:00.185Z,26.72
2019-06-27T15:38:04.148Z,26.78
2019-06-27T15:43:08.117Z,26.78
2019-06-27T15:48:12.204Z,26.82
2019-06-27T15:53:16.165Z,26.82
2019-06-27T15:58:20.195Z,26.97
2019-06-27T16:03:24.136Z,27.08
2019-06-27T16:08:28.120Z,27.14
2019-06-27T16:13:32.218Z,27.14
2019-06-27T16:18:36.196Z,27.17
2019-06-27T16:23:40.224Z,27.17
2019-06-27T16:28:44.169Z,27.21
2019-06-27T16:33:48.113Z,27.21
2019-06-27T16:38:52.136Z,27.17
2019-06-27T16:43:56.116Z,27.19
2019-06-27T16:49:00.059Z,27.19
2019-06-27T16:54:04.099Z,27.27
2019-06-27T16:59:08.113Z,27.21
2019-06-27T17:04:12.066Z,27.36
2019-06-27T17:09:16.220Z,27.45
2019-06-27T17:14:20.406Z,27.50
2019-06-27T17:19:24.352Z,27.51
2019-06-27T17:24:28.286Z,27.49
2019-06-27T17:29:32.207Z,27.53
2019-06-27T17:34:36.169Z,27.51
2019-06-27T17:39:40.105Z,27.51
2019-06-27T17:44:44.048Z,27.20
2019-06-27T17:49:49.193Z,27.28
2019-06-27T17:54:53.306Z,27.28
2019-06-27T17:59:57.248Z,27.30
2019-06-27T18:05:01.200Z,27.32
2019-06-27T18:10:05.964Z,27.33
2019-06-27T18:15:10.846Z,27.27
2019-06-27T18:20:15.205Z,27.29
2019-06-27T18:25:19.193Z,27.29
2019-06-27T18:30:23.211Z,27.21
2019-06-27T18:35:27.213Z,27.29
2019-06-27T18:40:31.147Z,27.30
2019-06-27T18:45:35.094Z,27.30
2019-06-27T18:50:39.044Z,27.25
2019-06-27T18:55:43.036Z,27.25
2019-06-27T19:00:47.002Z,27.22
2019-06-27T19:05:50.966Z,27.08
2019-06-27T19:10:54.939Z,27.13
2019-06-27T19:15:58.883Z,27.13
2019-06-27T19:21:05.271Z,27.10
2019-06-27T19:26:09.227Z,27.16
2019-06-27T19:31:13.179Z,27.22
2019-06-27T19:36:17.214Z,27.11
2019-06-27T19:41:21.233Z,27.12
2019-06-27T19:46:25.248Z,27.16
2019-06-27T19:51:29.264Z,27.15
2019-06-27T19:56:33.253Z,27.14
2019-06-27T20:01:37.336Z,26.54
2019-06-27T20:06:41.375Z,26.54
2019-06-27T20:11:46.091Z,26.16
2019-06-27T20:16:50.055Z,25.79
2019-06-27T20:21:54.013Z,25.70
2019-06-27T20:26:58.405Z,25.13
2019-06-27T20:32:02.348Z,25.54
2019-06-27T20:37:06.288Z,25.24
2019-06-27T20:42:10.243Z,25.24
2019-06-27T20:47:14.187Z,24.69
2019-06-27T20:52:18.117Z,24.69
2019-06-27T20:57:22.190Z,24.56
2019-06-27T21:02:26.493Z,24.56
2019-06-27T21:07:30.808Z,24.75
2019-06-27T21:12:35.488Z,24.74
2019-06-27T21:17:39.503Z,24.67
2019-06-27T21:22:45.998Z,24.09
2019-06-27T21:27:49.085Z,24.45
2019-06-27T21:32:53.121Z,24.54
2019-06-27T21:37:57.766Z,24.68
2019-06-27T21:43:01.702Z,25.53
2019-06-27T21:48:05.676Z,25.82
2019-06-27T21:53:09.618Z,25.84
2019-06-27T21:58:13.552Z,25.93
2019-06-27T22:03:17.643Z,25.89
2019-06-27T22:08:21.661Z,25.89
2019-06-27T22:13:25.754Z,26.01
2019-06-27T22:18:29.667Z,26.07
2019-06-27T22:23:33.644Z,26.09
2019-06-27T22:28:37.564Z,26.09
2019-06-27T22:33:41.559Z,26.12
2019-06-27T22:39:03.221Z,26.16
2019-06-27T22:44:24.757Z,26.15
2019-06-27T22:49:27.854Z,26.15
2019-06-27T22:54:32.881Z,26.19
2019-06-27T22:59:36.814Z,26.20
2019-06-27T23:04:40.819Z,26.20
2019-06-27T23:09:56.376Z,26.21
2019-06-27T23:14:50.655Z,26.21
2019-06-27T23:19:54.765Z,26.19
2019-06-27T23:24:58.701Z,26.21
2019-06-27T23:30:02.654Z,26.21
2019-06-27T23:35:07.607Z,26.21
2019-06-27T23:40:14.640Z,26.20
2019-06-27T23:45:18.006Z,26.20
2019-06-27T23:50:21.932Z,26.20
2019-06-27T23:55:25.855Z,26.18
